Vyborg, Russia
Current Conditions -  °F | °C
As of 3:20 AM on Saturday 22 Nov 2014 (Local Time) from EFLP Reporting Station
Light Snow Light Snow  
Wind Chill: 25°   Ceiling: 600
Heat Index: 25°   Visibility: 1.2mi
Dew Point: 25°   Wind: 3mph
Humidity: 100%   Direction: 110°ESE
Pressure: 30.21"   Gusts: NA
Location:  60.7°N, 28.75°E
Report Text: EFLP 220020Z AUTO 11003KT 2000 -SN BKN006 OVC018 M04/M04 Q1023
Loading
Personal Weather Stations






























Interactive Weather Map New forecast layout! Learn more

10-Day Weather Forecast

Advertisements
Track Severe Weather on mobile